Time;durP1;ratioP1;P1;durP2;ratioP2;P2;SDS_P1;SDS_P2;PMS_P1;PMS_P2;Temp;Humidity;BMP_temperature;BMP_pressure;BME280_temperature;BME280_humidity;BME280_pressure;Samples;Min_cycle;Max_cycle;Signal;HPM_P1;HPM_P2
2022/09/07 00:01:52;;;;;;;3.67;3.17;;;25.30;44.60;;;;;;5068599;28;20469;-87
2022/09/07 00:04:19;;;;;;;3.33;3.00;;;25.30;44.30;;;;;;5051477;28;20447;-87
2022/09/07 00:06:46;;;;;;;7.17;3.80;;;25.40;44.20;;;;;;5049710;28;20446;-87
2022/09/07 00:09:13;;;;;;;3.53;3.23;;;25.40;44.10;;;;;;5037544;28;20845;-88
2022/09/07 00:11:40;;;;;;;6.07;3.70;;;25.40;44.30;;;;;;5048704;28;20455;-88
2022/09/07 00:14:07;;;;;;;4.97;3.43;;;25.40;44.40;;;;;;5072520;28;20460;-87
2022/09/07 00:16:34;;;;;;;4.73;3.90;;;25.40;44.40;;;;;;5038095;28;20530;-87
2022/09/07 00:19:04;;;;;;;4.70;4.30;;;25.40;44.50;;;;;;5052168;28;20425;-88
2022/09/07 00:21:31;;;;;;;3.50;3.20;;;25.30;44.40;;;;;;5053828;28;20848;-87
2022/09/07 00:23:58;;;;;;;3.93;3.37;;;25.30;44.70;;;;;;5068514;28;20452;-89
2022/09/07 00:26:27;;;;;;;4.07;3.27;;;25.30;44.70;;;;;;5033663;28;20480;-86
2022/09/07 00:28:57;;;;;;;5.17;4.30;;;25.30;45.00;;;;;;5032305;28;20472;-88
2022/09/07 00:31:24;;;;;;;5.83;3.87;;;25.20;45.10;;;;;;5049948;28;20444;-88
2022/09/07 00:33:53;;;;;;;4.90;3.30;;;24.90;45.50;;;;;;5032988;28;20497;-88
2022/09/07 00:36:23;;;;;;;9.93;4.27;;;24.90;45.70;;;;;;5017099;28;20447;-90
2022/09/07 00:38:50;;;;;;;9.70;3.80;;;24.90;45.60;;;;;;5037709;28;20473;-88
2022/09/07 00:41:18;;;;;;;4.10;3.53;;;24.90;45.90;;;;;;5034898;28;20819;-87
2022/09/07 00:43:47;;;;;;;4.33;3.93;;;24.90;45.80;;;;;;5036231;28;20564;-88
2022/09/07 00:46:16;;;;;;;3.93;3.63;;;25.00;45.70;;;;;;5038452;28;20448;-87
2022/09/07 00:48:49;;;;;;;4.90;3.27;;;25.00;45.80;;;;;;5069596;28;20467;-88
2022/09/07 00:51:21;;;;;;;4.03;3.70;;;24.90;45.90;;;;;;5042298;28;20452;-87
2022/09/07 00:53:54;;;;;;;5.27;4.23;;;25.00;46.10;;;;;;5016341;28;20451;-87
2022/09/07 00:56:23;;;;;;;7.90;4.23;;;24.90;46.10;;;;;;5029824;28;20457;-87
2022/09/07 00:58:51;;;;;;;6.27;3.70;;;25.00;46.10;;;;;;5050961;28;20448;-88
2022/09/07 01:01:18;;;;;;;5.07;3.80;;;24.90;46.10;;;;;;5015921;28;21079;-89
2022/09/07 01:03:49;;;;;;;7.33;3.50;;;24.80;46.20;;;;;;5034568;28;20441;-89
2022/09/07 01:06:18;;;;;;;5.97;3.70;;;24.80;46.30;;;;;;5044994;28;20440;-88
2022/09/07 01:08:49;;;;;;;4.70;3.70;;;24.80;46.30;;;;;;5060387;28;20478;-87
2022/09/07 01:11:18;;;;;;;5.33;3.30;;;24.80;46.40;;;;;;5045573;28;20812;-88
2022/09/07 01:13:46;;;;;;;5.40;4.17;;;24.90;46.20;;;;;;5052701;28;20501;-87
2022/09/07 01:16:22;;;;;;;6.03;3.60;;;24.80;46.50;;;;;;5063839;28;20448;-89
2022/09/07 01:19:08;;;;;;;6.17;3.80;;;24.80;46.50;;;;;;5047828;28;20464;-88
2022/09/07 01:21:47;;;;;;;4.33;3.90;;;24.80;46.10;;;;;;5065089;28;20776;-88
2022/09/07 01:24:47;;;;;;;6.60;4.20;;;24.70;46.20;;;;;;5062611;28;20484;-85
2022/09/07 01:27:47;;;;;;;4.67;3.67;;;24.70;45.50;;;;;;5060834;28;20918;-88
2022/09/07 01:30:17;;;;;;;5.67;3.90;;;24.60;45.30;;;;;;5062124;28;20938;-88
2022/09/07 01:33:09;;;;;;;4.90;4.00;;;24.60;46.40;;;;;;5033914;28;20478;-87
2022/09/07 01:35:43;;;;;;;4.30;4.00;;;24.30;46.90;;;;;;5022835;28;20949;-88
2022/09/07 01:38:17;;;;;;;5.27;4.40;;;24.00;47.50;;;;;;5051075;28;20460;-87
2022/09/07 01:40:51;;;;;;;7.40;4.60;;;24.20;47.50;;;;;;5030582;28;20478;-87
2022/09/07 01:43:28;;;;;;;5.30;3.60;;;24.20;47.20;;;;;;5051674;28;20451;-90
2022/09/07 01:45:58;;;;;;;8.00;3.93;;;24.30;47.10;;;;;;5049217;28;20444;-87
2022/09/07 01:48:26;;;;;;;6.57;4.10;;;24.40;47.00;;;;;;5032386;28;20476;-86
2022/09/07 01:50:57;;;;;;;5.40;4.03;;;24.40;47.10;;;;;;5032787;28;20447;-87
2022/09/07 01:53:30;;;;;;;4.50;4.10;;;24.40;46.80;;;;;;5050787;28;20494;-88
2022/09/07 01:56:03;;;;;;;5.50;3.90;;;24.40;47.60;;;;;;5051769;28;20494;-88
2022/09/07 01:58:38;;;;;;;4.30;3.90;;;24.40;47.20;;;;;;5054837;28;20499;-87
2022/09/07 02:01:09;;;;;;;4.63;4.17;;;24.40;47.10;;;;;;5049195;28;20445;-89
2022/09/07 02:03:42;;;;;;;5.17;3.90;;;24.40;47.30;;;;;;5068000;28;20437;-87
2022/09/07 02:06:14;;;;;;;7.37;4.10;;;24.40;47.30;;;;;;5051637;28;20564;-90
2022/09/07 02:08:46;;;;;;;5.10;4.17;;;24.40;47.30;;;;;;5070443;28;20522;-87
2022/09/07 02:11:18;;;;;;;4.07;3.40;;;24.40;47.20;;;;;;5033089;28;20448;-88
2022/09/07 02:13:51;;;;;;;4.57;4.00;;;24.40;47.00;;;;;;5051841;28;20956;-87
2022/09/07 02:16:22;;;;;;;5.93;4.00;;;24.20;47.50;;;;;;5049239;28;20906;-87
2022/09/07 02:18:54;;;;;;;4.80;4.20;;;24.10;47.70;;;;;;5036250;28;20971;-88
2022/09/07 02:21:28;;;;;;;4.53;4.13;;;24.10;47.70;;;;;;5033769;28;20459;-90
2022/09/07 02:23:59;;;;;;;5.57;3.87;;;24.10;47.70;;;;;;5062333;28;20998;-86
2022/09/07 02:26:28;;;;;;;5.53;4.00;;;24.20;47.70;;;;;;5055194;28;20451;-87
2022/09/07 02:28:57;;;;;;;6.07;3.40;;;24.00;47.80;;;;;;5065796;28;20903;-87
2022/09/07 02:31:24;;;;;;;5.63;3.77;;;24.10;47.70;;;;;;5049016;28;20445;-87
2022/09/07 02:33:52;;;;;;;6.90;4.20;;;24.20;47.60;;;;;;5069751;28;20446;-86
2022/09/07 02:36:24;;;;;;;4.20;3.80;;;24.20;47.60;;;;;;5066188;28;20449;-88
2022/09/07 02:38:52;;;;;;;5.00;3.83;;;24.10;47.60;;;;;;5053986;28;20500;-86
2022/09/07 02:41:33;;;;;;;6.07;4.43;;;24.10;47.60;;;;;;5059953;28;20824;-88
2022/09/07 02:44:06;;;;;;;9.33;4.73;;;24.10;47.60;;;;;;5030454;28;20463;-87
2022/09/07 02:46:47;;;;;;;5.57;4.20;;;24.10;48.00;;;;;;5062297;28;20447;-87
2022/09/07 02:49:30;;;;;;;4.40;4.10;;;24.20;48.60;;;;;;5068338;28;20463;-87
2022/09/07 02:52:07;;;;;;;10.27;4.37;;;24.10;49.20;;;;;;5034105;28;20812;-87
2022/09/07 02:54:48;;;;;;;4.70;3.73;;;24.10;50.00;;;;;;5062937;28;21029;-88
2022/09/07 02:57:23;;;;;;;6.07;3.90;;;24.00;50.60;;;;;;5011601;28;20499;-87
2022/09/07 03:00:03;;;;;;;4.40;4.00;;;24.00;50.80;;;;;;5069725;28;20447;-87
2022/09/07 03:02:41;;;;;;;5.87;4.33;;;24.00;50.90;;;;;;5041767;28;20847;-87
2022/09/07 03:05:16;;;;;;;4.90;4.40;;;24.00;50.90;;;;;;5045841;28;20442;-87
2022/09/07 03:07:47;;;;;;;6.70;4.17;;;24.00;50.80;;;;;;5052521;28;21551;-89
2022/09/07 03:10:15;;;;;;;6.10;4.40;;;24.00;50.40;;;;;;5034255;28;21004;-86
2022/09/07 03:12:44;;;;;;;4.70;4.30;;;24.00;51.10;;;;;;5039145;28;20458;-88
2022/09/07 03:15:14;;;;;;;5.50;4.20;;;24.00;51.20;;;;;;5035552;28;20960;-88
2022/09/07 03:17:43;;;;;;;4.73;4.23;;;24.10;51.50;;;;;;5035501;28;20460;-87
2022/09/07 03:20:10;;;;;;;5.37;4.67;;;24.10;52.20;;;;;;5039728;28;20459;-87
2022/09/07 03:22:37;;;;;;;7.97;4.60;;;24.00;52.50;;;;;;5047552;28;20441;-87
2022/09/07 03:25:05;;;;;;;9.10;5.40;;;24.00;52.50;;;;;;5067412;28;20463;-87
2022/09/07 03:27:32;;;;;;;7.80;4.67;;;24.00;52.50;;;;;;5026725;28;20674;-89
2022/09/07 03:30:00;;;;;;;5.73;5.13;;;24.00;52.90;;;;;;5051146;28;20457;-87
2022/09/07 03:32:32;;;;;;;7.40;4.73;;;23.90;53.30;;;;;;5015754;28;20453;-87
2022/09/07 03:34:59;;;;;;;5.93;4.63;;;23.70;53.70;;;;;;5065417;28;20955;-88
2022/09/07 03:37:26;;;;;;;5.50;4.40;;;23.70;53.80;;;;;;5045539;28;20476;-88
2022/09/07 03:39:53;;;;;;;8.00;5.00;;;23.70;53.80;;;;;;5018956;28;20513;-88
2022/09/07 03:42:21;;;;;;;10.67;4.97;;;23.60;52.70;;;;;;5062925;28;20456;-87
2022/09/07 03:44:48;;;;;;;5.80;4.77;;;23.20;54.60;;;;;;5064588;28;20533;-87
2022/09/07 03:47:16;;;;;;;7.10;4.40;;;23.00;55.10;;;;;;5065360;28;20476;-90
2022/09/07 03:49:44;;;;;;;9.30;5.00;;;23.10;55.50;;;;;;5049415;28;20989;-88
2022/09/07 03:52:11;;;;;;;6.00;5.30;;;23.20;54.80;;;;;;5064252;28;20457;-87
2022/09/07 03:54:38;;;;;;;5.90;5.40;;;23.00;56.10;;;;;;5064870;28;20456;-87
2022/09/07 03:57:05;;;;;;;7.50;4.60;;;23.00;56.90;;;;;;5025781;28;20509;-89
2022/09/07 03:59:32;;;;;;;7.80;5.53;;;22.40;58.20;;;;;;5029554;28;20458;-87
2022/09/07 04:02:00;;;;;;;5.40;4.90;;;22.50;58.40;;;;;;5064254;28;20453;-87
2022/09/07 04:04:26;;;;;;;9.63;5.50;;;22.70;57.90;;;;;;5019916;28;20448;-84
2022/09/07 04:06:55;;;;;;;6.27;5.60;;;22.80;57.40;;;;;;5054765;28;20441;-86
2022/09/07 04:09:22;;;;;;;4.90;4.50;;;22.50;58.30;;;;;;5048398;28;20448;-86
2022/09/07 04:11:49;;;;;;;12.73;5.73;;;22.40;58.60;;;;;;5048411;28;20869;-86
2022/09/07 04:14:16;;;;;;;10.63;5.67;;;22.30;58.50;;;;;;5051757;28;20460;-87
2022/09/07 04:16:44;;;;;;;5.90;5.40;;;22.30;59.80;;;;;;5052239;28;20560;-90
2022/09/07 04:19:11;;;;;;;6.67;4.67;;;22.30;59.40;;;;;;5049013;28;20455;-87
2022/09/07 04:21:38;;;;;;;7.93;5.03;;;22.40;59.20;;;;;;5033813;28;20484;-86
2022/09/07 04:24:07;;;;;;;5.70;5.20;;;22.50;59.50;;;;;;5048568;28;20508;-86
2022/09/07 04:26:35;;;;;;;6.10;5.50;;;22.50;59.40;;;;;;5071236;28;20887;-86
2022/09/07 04:29:04;;;;;;;5.90;5.30;;;22.50;59.20;;;;;;5054171;28;20460;-87
2022/09/07 04:31:32;;;;;;;7.80;6.00;;;22.70;58.50;;;;;;5037055;28;20475;-87
2022/09/07 04:33:59;;;;;;;5.60;5.10;;;22.80;58.40;;;;;;5072986;28;20453;-89
2022/09/07 04:36:27;;;;;;;7.03;5.27;;;22.70;58.90;;;;;;5049298;28;20455;-87
2022/09/07 04:38:55;;;;;;;6.00;5.17;;;22.80;58.70;;;;;;5050951;28;20464;-86
2022/09/07 04:41:23;;;;;;;8.00;6.00;;;23.10;58.60;;;;;;5036723;28;20492;-86
2022/09/07 04:43:54;;;;;;;7.00;5.20;;;23.20;58.20;;;;;;5067639;28;20460;-89
2022/09/07 04:46:23;;;;;;;6.77;5.00;;;23.30;58.10;;;;;;5068608;28;20441;-87
2022/09/07 04:48:51;;;;;;;6.63;5.77;;;23.40;58.10;;;;;;5065976;28;20868;-85
2022/09/07 04:51:19;;;;;;;6.87;5.80;;;23.40;57.80;;;;;;5035174;28;20975;-88
2022/09/07 04:53:48;;;;;;;7.03;6.33;;;23.30;58.50;;;;;;5052470;28;20440;-86
2022/09/07 04:56:16;;;;;;;6.97;5.50;;;23.20;58.70;;;;;;5065945;28;20514;-87
2022/09/07 04:58:45;;;;;;;6.03;5.37;;;23.10;58.80;;;;;;5065200;28;20473;-89
2022/09/07 05:01:15;;;;;;;8.90;5.70;;;23.00;58.80;;;;;;5064696;28;20452;-87
2022/09/07 05:03:42;;;;;;;9.93;6.43;;;22.90;59.10;;;;;;5036322;28;20441;-88
2022/09/07 05:06:10;;;;;;;7.30;6.37;;;22.90;59.30;;;;;;5037534;28;20445;-90
2022/09/07 05:08:37;;;;;;;7.70;5.67;;;22.90;59.10;;;;;;5068124;28;20476;-86
2022/09/07 05:11:04;;;;;;;8.07;6.03;;;23.10;58.90;;;;;;5037722;28;20464;-87
2022/09/07 05:13:32;;;;;;;8.10;6.10;;;23.20;58.80;;;;;;5047075;28;20453;-87
2022/09/07 05:16:06;;;;;;;10.37;5.83;;;23.20;58.80;;;;;;5047234;28;20467;-86
2022/09/07 05:18:33;;;;;;;6.80;5.63;;;23.00;59.20;;;;;;5046267;28;20472;-86
2022/09/07 05:21:08;;;;;;;9.10;6.10;;;23.00;59.00;;;;;;5047744;28;20535;-89
2022/09/07 05:23:35;;;;;;;11.67;6.17;;;23.10;58.90;;;;;;5050878;28;20486;-87
2022/09/07 05:26:03;;;;;;;8.10;5.73;;;23.30;58.60;;;;;;5050751;28;20461;-86
2022/09/07 05:28:30;;;;;;;6.17;5.20;;;23.30;58.50;;;;;;5047000;28;20461;-87
2022/09/07 05:31:05;;;;;;;9.50;5.77;;;23.50;58.50;;;;;;5066228;28;20541;-86
2022/09/07 05:33:32;;;;;;;10.73;5.93;;;23.60;57.40;;;;;;5032568;28;20451;-87
2022/09/07 05:36:00;;;;;;;8.80;6.10;;;23.50;57.70;;;;;;5049178;28;20444;-86
2022/09/07 05:38:28;;;;;;;7.73;6.07;;;23.60;58.10;;;;;;5049959;28;20467;-88
2022/09/07 05:40:55;;;;;;;9.70;6.30;;;23.60;58.40;;;;;;5019513;28;20476;-86
2022/09/07 05:43:22;;;;;;;8.63;5.67;;;23.60;58.30;;;;;;5064508;28;20473;-86
2022/09/07 05:45:49;;;;;;;8.60;5.80;;;23.70;58.70;;;;;;5068625;28;20445;-89
2022/09/07 05:48:17;;;;;;;8.20;6.30;;;23.70;58.60;;;;;;5068128;28;20476;-87
2022/09/07 05:50:51;;;;;;;9.70;6.73;;;23.60;58.10;;;;;;5044512;28;20535;-86
2022/09/07 05:53:18;;;;;;;9.30;6.00;;;23.50;58.80;;;;;;5034591;28;20445;-88
2022/09/07 05:55:46;;;;;;;7.23;6.03;;;23.30;58.80;;;;;;5058001;28;20816;-89
2022/09/07 05:58:13;;;;;;;11.77;6.00;;;23.50;59.10;;;;;;5055115;28;20468;-88
2022/09/07 06:00:40;;;;;;;8.73;6.53;;;23.60;59.00;;;;;;5031010;28;20448;-92
2022/09/07 06:03:07;;;;;;;7.97;6.13;;;23.80;58.80;;;;;;5051960;28;20955;-85
2022/09/07 06:05:35;;;;;;;9.93;6.40;;;23.90;58.50;;;;;;5051975;28;20457;-87
2022/09/07 06:08:02;;;;;;;6.37;5.73;;;23.90;58.20;;;;;;5026579;28;20463;-88
2022/09/07 06:10:34;;;;;;;6.90;5.67;;;23.90;57.80;;;;;;5049972;28;20463;-91
2022/09/07 06:13:01;;;;;;;8.23;6.60;;;24.00;57.50;;;;;;5051900;28;20475;-88
2022/09/07 06:15:28;;;;;;;10.20;6.10;;;24.10;57.70;;;;;;5048699;28;20449;-89
2022/09/07 06:17:55;;;;;;;6.40;5.77;;;24.10;57.60;;;;;;5028101;28;20893;-89
2022/09/07 06:20:21;;;;;;;8.17;6.03;;;24.20;57.40;;;;;;5051569;28;20456;-85
2022/09/07 06:22:50;;;;;;;14.17;6.83;;;24.20;57.30;;;;;;5053026;28;20856;-88
2022/09/07 06:25:17;;;;;;;7.23;5.97;;;24.10;57.20;;;;;;5050803;28;20563;-87
2022/09/07 06:27:48;;;;;;;6.90;6.13;;;24.10;57.60;;;;;;5030678;28;20898;-88
2022/09/07 06:30:15;;;;;;;5.73;5.20;;;24.00;57.50;;;;;;5031243;28;20904;-87
2022/09/07 06:32:42;;;;;;;9.43;6.20;;;24.10;57.80;;;;;;5029023;28;20543;-87
2022/09/07 06:35:09;;;;;;;10.13;6.47;;;24.20;57.90;;;;;;5033092;28;20509;-88
2022/09/07 06:37:36;;;;;;;9.13;6.90;;;24.10;57.80;;;;;;5038766;28;20471;-88
2022/09/07 06:40:06;;;;;;;10.03;6.40;;;24.20;57.90;;;;;;5013929;28;21134;-87
2022/09/07 06:42:33;;;;;;;7.97;6.10;;;24.30;58.30;;;;;;5050380;28;20448;-88
2022/09/07 06:45:00;;;;;;;9.40;6.67;;;24.30;58.00;;;;;;5033477;28;20470;-88
2022/09/07 06:47:27;;;;;;;8.67;6.20;;;24.30;57.90;;;;;;5046615;28;20460;-88
2022/09/07 06:49:54;;;;;;;9.10;6.70;;;24.40;58.00;;;;;;5048037;28;20456;-88
2022/09/07 06:52:21;;;;;;;9.93;6.60;;;24.40;57.90;;;;;;5036126;28;20467;-88
2022/09/07 06:54:48;;;;;;;12.00;6.57;;;24.50;58.00;;;;;;5021758;28;20456;-88
2022/09/07 06:57:16;;;;;;;7.73;6.60;;;24.50;57.80;;;;;;5039278;28;20484;-89
2022/09/07 06:59:44;;;;;;;7.47;6.67;;;24.60;57.90;;;;;;5031899;28;20441;-87
2022/09/07 07:02:13;;;;;;;12.60;7.13;;;24.50;57.80;;;;;;5017288;28;20448;-89
2022/09/07 07:04:40;;;;;;;9.17;7.20;;;24.40;58.00;;;;;;5064185;28;20473;-86
2022/09/07 07:07:10;;;;;;;10.73;7.00;;;24.50;58.20;;;;;;5054155;28;20473;-88
2022/09/07 07:09:37;;;;;;;10.10;7.13;;;24.50;57.90;;;;;;5049074;28;20502;-88
2022/09/07 07:12:04;;;;;;;8.70;7.03;;;24.40;57.80;;;;;;5035993;28;20463;-88
2022/09/07 07:14:34;;;;;;;7.90;7.20;;;24.30;58.00;;;;;;5030300;28;20441;-87
2022/09/07 07:17:01;;;;;;;10.67;7.67;;;24.40;58.00;;;;;;5049735;28;21209;-88
2022/09/07 07:19:28;;;;;;;9.00;8.10;;;24.40;58.10;;;;;;5066083;28;20983;-92
2022/09/07 07:21:55;;;;;;;9.70;8.10;;;24.50;58.30;;;;;;5023654;28;20447;-88
2022/09/07 07:24:23;;;;;;;12.97;7.40;;;24.50;57.70;;;;;;5030129;28;20809;-89
2022/09/07 07:26:50;;;;;;;10.43;7.27;;;24.40;57.40;;;;;;5015927;28;20432;-88
2022/09/07 07:29:17;;;;;;;6.40;5.80;;;24.50;57.60;;;;;;5032039;28;20546;-87
2022/09/07 07:31:46;;;;;;;10.27;6.90;;;24.50;57.80;;;;;;5013006;28;20504;-91
2022/09/07 07:34:13;;;;;;;8.43;6.27;;;24.50;57.90;;;;;;5032300;28;20547;-89
2022/09/07 07:36:40;;;;;;;9.60;7.00;;;24.50;57.80;;;;;;5047275;28;20893;-91
2022/09/07 07:39:07;;;;;;;9.87;6.50;;;24.50;57.90;;;;;;5017117;28;20455;-87
2022/09/07 07:41:34;;;;;;;11.63;6.37;;;24.60;57.90;;;;;;5049242;28;20459;-87
2022/09/07 07:44:02;;;;;;;8.90;7.00;;;24.60;58.20;;;;;;5033880;28;20517;-87
2022/09/07 07:46:31;;;;;;;9.90;6.77;;;24.60;58.40;;;;;;5044465;28;20529;-88
2022/09/07 07:48:59;;;;;;;7.47;6.67;;;24.70;58.10;;;;;;5033324;28;20460;-88
2022/09/07 07:51:26;;;;;;;8.50;7.23;;;24.70;57.90;;;;;;5044391;28;20473;-87
2022/09/07 07:53:53;;;;;;;9.73;6.40;;;24.70;58.20;;;;;;5069134;28;20474;-88
2022/09/07 07:56:20;;;;;;;7.40;6.27;;;24.70;58.10;;;;;;5037945;28;20467;-87
2022/09/07 07:58:48;;;;;;;7.70;6.10;;;24.70;58.40;;;;;;5039581;28;20459;-89
2022/09/07 08:01:17;;;;;;;10.30;6.57;;;24.70;58.60;;;;;;5069101;28;20532;-87
2022/09/07 08:03:46;;;;;;;9.23;6.27;;;24.80;58.50;;;;;;5069374;28;20453;-88
2022/09/07 08:06:15;;;;;;;7.80;7.00;;;25.00;58.50;;;;;;5037906;28;20489;-87
2022/09/07 08:08:43;;;;;;;7.17;6.23;;;25.00;58.00;;;;;;5067198;28;20476;-88
2022/09/07 08:11:12;;;;;;;10.60;6.30;;;25.10;58.00;;;;;;5048053;28;20476;-88
2022/09/07 08:13:40;;;;;;;9.03;6.20;;;25.10;57.70;;;;;;5055181;28;20455;-88
2022/09/07 08:16:08;;;;;;;6.60;5.30;;;25.20;58.20;;;;;;5026557;28;20451;-88
2022/09/07 08:18:37;;;;;;;7.17;5.70;;;25.30;57.90;;;;;;5053209;28;20476;-87
2022/09/07 08:21:05;;;;;;;6.17;5.13;;;25.40;57.80;;;;;;5034807;28;20459;-87
2022/09/07 08:23:34;;;;;;;10.30;5.43;;;25.50;57.80;;;;;;5065361;28;21043;-90
2022/09/07 08:26:01;;;;;;;5.90;5.17;;;25.60;57.40;;;;;;5017163;28;20440;-87
2022/09/07 08:28:30;;;;;;;7.97;4.77;;;25.50;57.20;;;;;;5050058;28;20702;-87
2022/09/07 08:30:58;;;;;;;6.30;5.33;;;25.60;57.00;;;;;;5018152;28;20464;-88
2022/09/07 08:33:25;;;;;;;4.93;4.33;;;25.50;56.80;;;;;;5047885;28;21041;-87
2022/09/07 08:35:57;;;;;;;6.07;4.60;;;25.60;56.40;;;;;;5050848;28;20963;-87
2022/09/07 08:38:25;;;;;;;5.27;4.20;;;25.60;56.10;;;;;;5037111;28;20480;-87
2022/09/07 08:40:53;;;;;;;6.40;4.53;;;25.70;56.20;;;;;;5066299;28;21380;-87
2022/09/07 08:43:35;;;;;;;5.50;4.37;;;25.80;55.90;;;;;;5067798;28;20475;-86
2022/09/07 08:46:10;;;;;;;4.77;4.37;;;25.90;55.90;;;;;;5066148;28;20453;-87
2022/09/07 08:48:38;;;;;;;5.10;4.10;;;25.80;55.60;;;;;;5044237;28;20471;-86
2022/09/07 08:51:12;;;;;;;5.60;4.33;;;25.90;55.40;;;;;;5066212;28;20473;-88
2022/09/07 08:53:45;;;;;;;6.20;4.10;;;26.00;55.40;;;;;;5035873;28;20452;-87
2022/09/07 08:56:19;;;;;;;8.80;3.93;;;26.10;54.70;;;;;;5066082;28;20452;-87
2022/09/07 08:58:48;;;;;;;10.40;4.07;;;26.20;54.90;;;;;;5063417;28;20461;-87
2022/09/07 09:01:16;;;;;;;4.87;3.70;;;26.20;54.60;;;;;;5027892;28;20457;-86
2022/09/07 09:03:44;;;;;;;10.57;3.50;;;26.20;54.20;;;;;;5045803;28;20444;-87
2022/09/07 09:06:19;;;;;;;4.10;3.50;;;26.30;55.20;;;;;;5048260;28;20453;-89
2022/09/07 09:09:07;;;;;;;5.23;3.50;;;26.40;53.90;;;;;;5021223;28;20909;-86
2022/09/07 09:11:47;;;;;;;3.07;2.77;;;26.70;54.20;;;;;;5026177;28;20476;-87
2022/09/07 09:14:24;;;;;;;6.63;2.90;;;26.90;53.50;;;;;;5065141;28;20458;-88
2022/09/07 09:16:55;;;;;;;3.43;2.80;;;27.10;53.10;;;;;;5041943;28;21353;-87
2022/09/07 09:19:51;;;;;;;7.83;3.03;;;27.30;52.10;;;;;;5067117;28;20501;-87
2022/09/07 09:22:20;;;;;;;2.93;2.53;;;27.30;51.80;;;;;;5061262;28;20443;-87
2022/09/07 09:24:49;;;;;;;6.00;3.30;;;27.40;51.50;;;;;;5042201;28;20984;-87
2022/09/07 09:27:17;;;;;;;5.13;2.87;;;27.60;51.90;;;;;;5061168;28;20480;-87
2022/09/07 09:29:45;;;;;;;8.67;2.50;;;27.80;51.40;;;;;;5012251;28;20450;-87
2022/09/07 09:32:35;;;;;;;3.13;2.77;;;28.10;51.10;;;;;;5060356;28;20540;-87
2022/09/07 09:35:11;;;;;;;2.87;2.53;;;28.20;50.00;;;;;;5029717;28;20484;-87
2022/09/07 09:37:40;;;;;;;6.17;3.27;;;28.30;50.00;;;;;;5045614;28;20470;-87
2022/09/07 09:40:17;;;;;;;8.00;2.80;;;28.30;49.50;;;;;;5013173;28;20976;-87
2022/09/07 09:42:46;;;;;;;2.73;2.27;;;28.30;50.20;;;;;;5046432;28;20452;-87
2022/09/07 09:45:19;;;;;;;3.07;2.73;;;28.40;50.30;;;;;;5061470;28;20455;-88
2022/09/07 09:47:51;;;;;;;3.33;2.10;;;28.40;49.80;;;;;;5065413;28;21003;-87
2022/09/07 09:50:27;;;;;;;3.20;2.70;;;28.50;49.60;;;;;;5041190;28;20961;-87
2022/09/07 09:52:55;;;;;;;4.43;2.23;;;28.80;48.80;;;;;;5045252;28;20472;-87
2022/09/07 09:55:26;;;;;;;4.10;2.50;;;29.00;48.00;;;;;;5033182;28;20962;-87
2022/09/07 09:57:57;;;;;;;5.03;2.30;;;29.10;47.80;;;;;;5062364;28;20481;-87
2022/09/07 10:00:25;;;;;;;6.27;2.40;;;29.40;48.00;;;;;;5061250;28;20520;-89
2022/09/07 10:03:04;;;;;;;5.10;2.53;;;29.50;47.00;;;;;;5060738;28;20515;-87
2022/09/07 10:05:35;;;;;;;3.73;2.50;;;29.40;46.90;;;;;;5036598;28;20450;-88
2022/09/07 10:08:03;;;;;;;3.30;3.00;;;29.40;47.50;;;;;;5023854;28;20492;-87
2022/09/07 10:10:31;;;;;;;2.80;2.60;;;29.30;47.40;;;;;;5062156;28;20450;-88
2022/09/07 10:12:59;;;;;;;7.10;2.80;;;29.30;47.30;;;;;;5047093;28;20508;-88
2022/09/07 10:15:34;;;;;;;5.70;2.53;;;29.30;47.20;;;;;;5042599;28;20444;-87
2022/09/07 10:18:04;;;;;;;2.73;2.00;;;29.40;47.10;;;;;;5045715;28;20468;-88
2022/09/07 10:20:37;;;;;;;9.50;2.83;;;29.40;46.80;;;;;;5062482;28;20450;-87
2022/09/07 10:23:05;;;;;;;3.60;2.53;;;29.40;46.20;;;;;;5041557;28;20957;-87
2022/09/07 10:25:35;;;;;;;2.20;1.90;;;29.70;46.30;;;;;;5056587;28;20468;-87
2022/09/07 10:28:15;;;;;;;5.10;2.60;;;29.90;45.20;;;;;;5043265;28;20472;-87
2022/09/07 10:30:56;;;;;;;7.60;2.23;;;30.10;45.50;;;;;;5063136;28;20452;-87
2022/09/07 10:33:40;;;;;;;5.63;2.23;;;30.30;45.10;;;;;;5045937;28;20492;-87
2022/09/07 10:36:15;;;;;;;2.80;2.47;;;30.40;43.50;;;;;;5063313;28;20458;-87
2022/09/07 10:38:52;;;;;;;2.27;2.10;;;30.50;43.80;;;;;;5064032;28;20475;-88
2022/09/07 10:41:22;;;;;;;4.50;2.63;;;30.90;43.80;;;;;;5042083;28;21269;-88
2022/09/07 10:43:51;;;;;;;7.40;2.43;;;31.00;42.90;;;;;;5044463;28;20871;-87
2022/09/07 10:46:35;;;;;;;5.97;2.47;;;31.00;42.40;;;;;;5062214;28;20478;-87
2022/09/07 10:49:16;;;;;;;2.83;1.93;;;30.80;42.10;;;;;;5058905;28;20480;-87
2022/09/07 10:51:49;;;;;;;4.73;2.17;;;30.70;42.00;;;;;;5045446;28;20474;-87
2022/09/07 10:54:21;;;;;;;5.23;2.10;;;30.60;42.30;;;;;;5042392;28;20456;-88
2022/09/07 10:57:00;;;;;;;8.80;2.30;;;30.50;42.40;;;;;;5060746;28;20546;-87
2022/09/07 10:59:43;;;;;;;3.10;2.00;;;30.30;42.50;;;;;;5026292;28;20461;-87
2022/09/07 11:02:20;;;;;;;4.10;1.93;;;30.30;42.90;;;;;;5033238;28;20846;-87
2022/09/07 11:05:01;;;;;;;3.43;1.83;;;30.50;42.20;;;;;;5059650;28;20451;-87
2022/09/07 11:07:50;;;;;;;4.73;2.27;;;30.90;42.10;;;;;;5042851;28;20478;-87
2022/09/07 11:10:26;;;;;;;3.27;1.93;;;31.10;40.70;;;;;;5045527;28;20619;-87
2022/09/07 11:12:58;;;;;;;3.53;2.20;;;31.10;40.90;;;;;;5044126;28;20465;-88
2022/09/07 11:15:30;;;;;;;4.70;2.57;;;31.30;40.80;;;;;;5025498;28;20457;-87
2022/09/07 11:18:05;;;;;;;4.20;2.13;;;31.60;40.20;;;;;;5059096;28;20504;-88
2022/09/07 11:20:37;;;;;;;3.53;2.17;;;31.60;39.50;;;;;;5060962;28;20452;-87
2022/09/07 11:23:14;;;;;;;2.80;2.03;;;31.60;40.10;;;;;;5025863;28;21438;-87
2022/09/07 11:25:54;;;;;;;4.93;2.07;;;31.60;39.40;;;;;;5060878;28;20456;-87
2022/09/07 11:28:24;;;;;;;4.20;2.20;;;31.70;38.80;;;;;;5064578;28;20471;-87
2022/09/07 11:30:57;;;;;;;4.50;1.70;;;31.90;38.90;;;;;;5029977;28;20445;-88
2022/09/07 11:33:26;;;;;;;3.37;2.20;;;32.10;38.70;;;;;;5014575;28;21113;-87
2022/09/07 11:36:01;;;;;;;2.30;2.10;;;32.20;38.30;;;;;;5044163;28;20711;-88
2022/09/07 11:38:34;;;;;;;2.90;1.67;;;32.10;37.70;;;;;;5045960;28;20474;-88
2022/09/07 11:41:13;;;;;;;5.47;1.83;;;32.40;38.50;;;;;;5046212;28;20447;-87
2022/09/07 11:43:45;;;;;;;4.07;2.00;;;32.40;37.70;;;;;;5018221;28;20965;-87
2022/09/07 11:46:17;;;;;;;2.20;2.00;;;32.30;38.10;;;;;;5049055;28;20538;-88
2022/09/07 11:48:48;;;;;;;3.10;2.00;;;32.20;37.50;;;;;;5035835;28;20900;-87
2022/09/07 11:51:21;;;;;;;3.37;2.17;;;32.20;37.30;;;;;;5047858;28;20490;-87
2022/09/07 11:53:53;;;;;;;3.00;1.80;;;32.40;37.00;;;;;;5048674;28;20464;-87
2022/09/07 11:56:26;;;;;;;4.07;1.90;;;32.70;37.20;;;;;;5019564;28;20455;-88
2022/09/07 11:59:13;;;;;;;2.23;2.03;;;32.80;36.70;;;;;;5023230;28;20544;-87
2022/09/07 12:01:51;;;;;;;2.53;1.80;;;33.00;37.00;;;;;;5062194;28;20547;-88
2022/09/07 12:04:47;;;;;;;2.80;1.77;;;33.30;36.50;;;;;;5043753;28;20938;-88
2022/09/07 12:07:43;;;;;;;2.43;1.80;;;33.30;35.50;;;;;;5027606;28;20466;-87
2022/09/07 12:10:30;;;;;;;2.10;1.90;;;32.80;36.20;;;;;;5022136;28;20535;-87
2022/09/07 12:13:08;;;;;;;2.27;2.07;;;32.90;36.50;;;;;;5031740;28;20459;-88
2022/09/07 12:15:47;;;;;;;2.70;1.90;;;32.90;36.40;;;;;;5062540;28;20455;-88
2022/09/07 12:18:31;;;;;;;3.20;2.10;;;33.00;35.60;;;;;;5060477;28;20467;-87
2022/09/07 12:20:58;;;;;;;6.57;2.07;;;33.30;35.20;;;;;;5041860;28;20548;-87
2022/09/07 12:23:29;;;;;;;2.90;2.07;;;33.20;34.80;;;;;;5043190;28;20461;-87
2022/09/07 12:26:29;;;;;;;3.03;2.00;;;33.30;35.60;;;;;;5008526;28;20911;-88
2022/09/07 12:29:18;;;;;;;4.17;2.10;;;33.30;34.40;;;;;;5030127;28;20881;-87
2022/09/07 12:31:47;;;;;;;6.37;2.17;;;33.40;34.20;;;;;;5029242;28;20595;-87
2022/09/07 12:34:49;;;;;;;5.03;1.90;;;33.60;33.60;;;;;;5043288;28;20469;-87
2022/09/07 12:37:41;;;;;;;3.07;1.87;;;33.60;33.80;;;;;;5044819;28;20768;-88
2022/09/07 12:40:43;;;;;;;6.70;2.50;;;33.20;34.00;;;;;;5011898;28;21052;-87
2022/09/07 12:43:46;;;;;;;2.20;2.00;;;32.70;34.70;;;;;;5028535;28;20449;-88
2022/09/07 12:46:35;;;;;;;4.63;2.13;;;32.60;36.30;;;;;;5023163;28;21055;-88
2022/09/07 12:49:11;;;;;;;3.50;2.30;;;32.80;35.80;;;;;;5042401;28;21314;-88
2022/09/07 12:51:40;;;;;;;5.60;2.23;;;32.80;35.30;;;;;;5044610;28;20448;-87
2022/09/07 12:54:18;;;;;;;2.10;1.80;;;32.60;34.60;;;;;;5047586;28;20472;-87
2022/09/07 12:56:49;;;;;;;2.83;1.77;;;32.30;35.60;;;;;;5035245;28;20463;-87
2022/09/07 12:59:51;;;;;;;4.80;2.10;;;32.20;34.30;;;;;;5042146;28;20730;-88
2022/09/07 13:02:40;;;;;;;3.00;2.70;;;32.00;35.40;;;;;;5022262;28;20465;-88
2022/09/07 13:05:18;;;;;;;2.53;2.33;;;32.10;35.10;;;;;;5046376;28;20456;-87
2022/09/07 13:08:13;;;;;;;2.37;2.17;;;32.20;35.50;;;;;;5059525;28;20477;-86
2022/09/07 13:10:41;;;;;;;2.03;1.80;;;32.20;34.80;;;;;;5056044;28;20457;-87